Time;durP1;ratioP1;P1;durP2;ratioP2;P2;SDS_P1;SDS_P2;PMS_P1;PMS_P2;Temp;Humidity;BMP_temperature;BMP_pressure;BME280_temperature;BME280_humidity;BME280_pressure;Samples;Min_cycle;Max_cycle;Signal;HPM_P1;HPM_P2
2022/06/05 00:01:09;;;;;;;1.42;1.25;;;14.20;99.90;;;;;;6244852;22;20438;-70
2022/06/05 00:03:53;;;;;;;4.43;1.00;;;14.30;99.90;;;;;;6244253;22;20024;-75
2022/06/05 00:06:49;;;;;;;3.10;0.88;;;14.30;99.90;;;;;;6244820;22;20304;-73
2022/06/05 00:09:19;;;;;;;1.92;0.88;;;14.50;99.90;;;;;;6245107;22;20011;-69
2022/06/05 00:12:07;;;;;;;2.30;0.90;;;14.50;99.90;;;;;;6245131;22;20004;-73
2022/06/05 00:14:39;;;;;;;4.47;0.88;;;14.50;99.90;;;;;;6244646;22;20013;-74
2022/06/05 00:17:09;;;;;;;1.50;0.80;;;14.60;99.90;;;;;;6244248;22;20008;-70
2022/06/05 00:19:42;;;;;;;2.15;0.82;;;14.60;99.90;;;;;;6243777;22;20012;-73
2022/06/05 00:22:09;;;;;;;0.60;0.50;;;14.60;99.90;;;;;;6243816;22;20007;-73
2022/06/05 00:24:40;;;;;;;1.52;0.60;;;14.60;99.70;;;;;;6244410;22;20008;-72
2022/06/05 00:27:32;;;;;;;3.60;0.70;;;14.60;99.60;;;;;;6244474;22;20015;-70
2022/06/05 00:30:09;;;;;;;2.30;1.10;;;14.70;99.60;;;;;;6243945;22;20079;-69
2022/06/05 00:32:42;;;;;;;2.70;0.82;;;14.80;99.60;;;;;;6244819;22;20004;-67
2022/06/05 00:35:15;;;;;;;1.58;1.13;;;14.90;99.30;;;;;;6244967;22;20074;-70
2022/06/05 00:37:49;;;;;;;1.60;0.50;;;15.00;99.50;;;;;;6243290;22;19988;-70
2022/06/05 00:40:37;;;;;;;1.42;0.80;;;15.00;99.20;;;;;;6243981;22;20076;-71
2022/06/05 00:43:10;;;;;;;1.40;0.70;;;15.10;99.30;;;;;;6245701;22;20054;-70
2022/06/05 00:45:39;;;;;;;2.55;0.50;;;15.10;98.90;;;;;;6242929;23;20032;-71
2022/06/05 00:48:08;;;;;;;1.45;0.60;;;15.10;98.90;;;;;;6245087;22;20043;-71
2022/06/05 00:50:39;;;;;;;0.77;0.60;;;15.10;98.80;;;;;;6244620;22;20457;-70
2022/06/05 00:53:08;;;;;;;1.67;0.70;;;15.20;98.80;;;;;;6244119;22;20004;-67
2022/06/05 00:55:48;;;;;;;1.98;1.35;;;15.20;98.90;;;;;;6241509;22;20466;-74
2022/06/05 00:58:17;;;;;;;1.00;0.70;;;15.30;98.60;;;;;;6245180;22;20014;-67
2022/06/05 01:00:54;;;;;;;2.30;0.95;;;15.40;98.10;;;;;;6243985;22;20004;-69
2022/06/05 01:03:23;;;;;;;1.88;0.60;;;15.50;97.90;;;;;;6241912;23;20024;-76
2022/06/05 01:05:51;;;;;;;3.10;0.73;;;15.60;97.60;;;;;;6244632;22;20000;-68
2022/06/05 01:08:19;;;;;;;3.03;0.90;;;15.80;97.00;;;;;;6241883;22;20039;-70
2022/06/05 01:10:58;;;;;;;5.78;3.28;;;15.90;96.60;;;;;;6242077;22;20004;-72
2022/06/05 01:13:56;;;;;;;8.48;3.47;;;16.00;96.90;;;;;;6237698;22;20004;-74
2022/06/05 01:16:53;;;;;;;1.77;0.90;;;16.10;96.40;;;;;;6243117;23;19996;-71
2022/06/05 01:19:37;;;;;;;3.70;1.55;;;16.30;96.10;;;;;;6242874;23;20072;-74
2022/06/05 01:22:31;;;;;;;5.53;1.48;;;16.40;96.10;;;;;;6240718;22;20032;-74
2022/06/05 01:25:23;;;;;;;4.60;1.55;;;16.60;96.00;;;;;;6244155;22;20457;-76
2022/06/05 01:27:57;;;;;;;6.10;2.20;;;16.70;95.90;;;;;;6244712;22;20087;-71
2022/06/05 01:30:26;;;;;;;3.63;1.40;;;17.00;95.10;;;;;;6245177;22;20004;-72
2022/06/05 01:32:59;;;;;;;2.42;0.80;;;17.10;94.40;;;;;;6245077;22;20028;-76
2022/06/05 01:35:46;;;;;;;2.08;0.77;;;17.10;94.00;;;;;;6245850;22;20000;-74
2022/06/05 01:38:34;;;;;;;1.70;0.80;;;17.20;94.10;;;;;;6242944;22;20004;-73
2022/06/05 01:41:24;;;;;;;2.38;1.40;;;17.40;93.90;;;;;;6236504;22;20007;-76
2022/06/05 01:43:57;;;;;;;3.55;1.73;;;17.40;93.70;;;;;;6242173;23;20000;-77
2022/06/05 01:46:36;;;;;;;1.95;0.70;;;17.50;93.80;;;;;;6240708;22;20011;-78
2022/06/05 01:49:09;;;;;;;2.28;0.77;;;17.50;93.20;;;;;;6243217;22;20067;-74
2022/06/05 01:51:48;;;;;;;2.63;0.60;;;17.60;92.90;;;;;;6243680;22;20042;-73
2022/06/05 01:54:43;;;;;;;1.30;0.63;;;17.60;92.70;;;;;;6244085;22;20011;-72
2022/06/05 01:57:13;;;;;;;1.55;0.60;;;17.60;93.10;;;;;;6243448;22;20015;-72
2022/06/05 01:59:52;;;;;;;1.67;0.80;;;17.70;92.80;;;;;;6243819;22;20003;-75
2022/06/05 02:02:29;;;;;;;1.33;0.60;;;17.80;92.80;;;;;;6242860;22;20001;-73
2022/06/05 02:05:42;;;;;;;1.63;0.90;;;17.90;92.20;;;;;;6244351;22;20015;-72
2022/06/05 02:08:33;;;;;;;3.20;1.27;;;17.80;92.10;;;;;;6242934;23;20038;-73
2022/06/05 02:11:23;;;;;;;3.70;0.88;;;17.80;92.20;;;;;;6243161;23;20059;-77
2022/06/05 02:13:57;;;;;;;3.22;1.10;;;17.90;92.00;;;;;;6241997;22;20304;-68
2022/06/05 02:16:26;;;;;;;2.30;0.85;;;17.80;91.90;;;;;;6245439;22;20008;-70
2022/06/05 02:18:54;;;;;;;1.48;0.70;;;17.90;92.00;;;;;;6244440;22;20000;-70
2022/06/05 02:21:21;;;;;;;2.97;1.25;;;18.00;91.90;;;;;;6242278;22;20088;-70
2022/06/05 02:23:49;;;;;;;1.50;0.73;;;18.20;91.80;;;;;;6243815;22;20423;-68
2022/06/05 02:26:16;;;;;;;1.80;0.85;;;18.20;91.10;;;;;;6242734;22;20433;-73
2022/06/05 02:28:43;;;;;;;2.80;0.90;;;18.10;91.20;;;;;;6242203;23;20347;-72
2022/06/05 02:31:30;;;;;;;1.10;0.60;;;18.10;91.60;;;;;;6241307;22;20075;-70
2022/06/05 02:34:10;;;;;;;1.05;0.68;;;18.10;91.50;;;;;;6243246;22;20018;-73
2022/06/05 02:37:17;;;;;;;2.88;1.08;;;18.20;91.40;;;;;;6242824;22;20075;-70
2022/06/05 02:40:09;;;;;;;5.03;0.75;;;18.30;91.30;;;;;;6243655;22;20319;-71
2022/06/05 02:42:50;;;;;;;2.13;0.80;;;18.60;91.10;;;;;;6243939;22;20079;-69
2022/06/05 02:45:25;;;;;;;3.72;0.70;;;18.80;90.50;;;;;;6243642;22;20386;-69
2022/06/05 02:48:05;;;;;;;1.50;0.55;;;19.00;89.00;;;;;;6243351;22;20015;-67
2022/06/05 02:50:35;;;;;;;2.42;0.60;;;19.00;89.60;;;;;;6243912;22;20335;-71
2022/06/05 02:53:06;;;;;;;1.38;0.50;;;19.00;89.40;;;;;;6242661;22;20000;-70
2022/06/05 02:55:34;;;;;;;2.28;0.60;;;19.10;88.00;;;;;;6246686;22;20008;-72
2022/06/05 02:58:01;;;;;;;2.45;0.60;;;19.10;86.20;;;;;;6244833;23;20394;-72
2022/06/05 03:00:31;;;;;;;2.58;0.70;;;19.20;87.30;;;;;;6245487;22;20004;-69
2022/06/05 03:05:44;;;;;;;0.82;0.50;;;19.40;86.10;;;;;;6246309;23;20500;-67
2022/06/05 03:08:14;;;;;;;2.47;0.50;;;19.40;85.20;;;;;;6244803;23;20038;-71
2022/06/05 03:10:44;;;;;;;1.10;0.50;;;19.30;85.20;;;;;;6246001;22;19997;-75
2022/06/05 03:13:13;;;;;;;3.33;0.70;;;19.30;83.70;;;;;;6245785;22;20360;-69
2022/06/05 03:15:44;;;;;;;1.77;0.60;;;19.40;84.40;;;;;;6243436;22;20433;-71
2022/06/05 03:18:13;;;;;;;1.83;0.47;;;19.20;84.20;;;;;;6244674;23;20000;-75
2022/06/05 03:20:42;;;;;;;0.88;0.50;;;19.00;84.60;;;;;;6245767;22;20316;-71
2022/06/05 03:23:10;;;;;;;2.60;0.70;;;19.00;85.50;;;;;;6243935;23;20044;-74
2022/06/05 03:25:40;;;;;;;0.45;0.40;;;19.10;85.50;;;;;;6245427;22;20422;-73
2022/06/05 03:28:09;;;;;;;1.70;0.88;;;19.20;85.00;;;;;;6248705;23;20095;-76
2022/06/05 03:30:41;;;;;;;0.70;0.57;;;19.30;85.40;;;;;;6245985;22;20007;-74
2022/06/05 03:33:11;;;;;;;1.60;0.50;;;19.20;84.80;;;;;;6245907;22;20004;-76
2022/06/05 03:35:40;;;;;;;1.63;0.40;;;19.10;85.60;;;;;;6246124;22;20003;-73
2022/06/05 03:38:12;;;;;;;1.27;0.50;;;18.80;85.80;;;;;;6247072;22;20004;-75
2022/06/05 03:40:44;;;;;;;0.90;0.50;;;18.50;85.60;;;;;;6246732;22;20000;-77
2022/06/05 03:43:11;;;;;;;;;;;18.30;87.00;;;;;;6246957;22;20008;-74
2022/06/05 03:45:39;;;;;;;2.10;1.15;;;18.10;87.00;;;;;;6246192;22;19900;-74
2022/06/05 03:48:07;;;;;;;3.22;0.60;;;17.80;87.30;;;;;;6247072;22;20016;-74
2022/06/05 03:50:38;;;;;;;3.22;0.63;;;17.70;87.80;;;;;;6247596;22;19996;-75
2022/06/05 03:53:06;;;;;;;0.80;0.52;;;17.60;88.20;;;;;;6245294;23;20008;-75
2022/06/05 03:55:33;;;;;;;1.30;0.80;;;17.50;89.00;;;;;;6247322;22;20007;-74
2022/06/05 03:58:01;;;;;;;0.90;0.40;;;17.50;89.60;;;;;;6247664;22;20000;-76
2022/06/05 04:00:28;;;;;;;1.60;0.50;;;17.60;88.70;;;;;;6255600;22;20039;-71
2022/06/05 04:02:55;;;;;;;1.10;0.70;;;17.60;89.20;;;;;;6253789;22;20020;-72
2022/06/05 04:05:23;;;;;;;4.68;0.70;;;17.60;89.30;;;;;;6254826;22;19992;-76
2022/06/05 04:07:56;;;;;;;2.03;0.80;;;17.60;89.00;;;;;;6258917;22;20012;-76
2022/06/05 04:10:26;;;;;;;0.85;0.50;;;17.60;89.30;;;;;;6258286;22;20004;-76
2022/06/05 04:13:00;;;;;;;2.08;0.57;;;17.50;89.50;;;;;;6248442;23;20008;-79
2022/06/05 04:15:30;;;;;;;1.10;0.57;;;17.50;89.20;;;;;;6246481;22;20478;-79
2022/06/05 04:18:00;;;;;;;1.60;0.50;;;17.40;89.50;;;;;;6246225;22;20101;-77
2022/06/05 04:20:29;;;;;;;2.03;0.70;;;17.40;89.80;;;;;;6245975;22;20000;-74
2022/06/05 04:22:56;;;;;;;3.17;1.48;;;17.40;90.10;;;;;;6245270;22;20012;-81
2022/06/05 04:25:25;;;;;;;1.25;0.50;;;17.30;90.20;;;;;;6245597;22;20382;-74
2022/06/05 04:27:52;;;;;;;1.92;0.55;;;17.30;90.20;;;;;;6244432;23;20012;-78
2022/06/05 04:30:20;;;;;;;3.05;0.95;;;17.30;90.40;;;;;;6244739;22;19996;-72
2022/06/05 04:32:47;;;;;;;1.67;0.63;;;17.30;90.40;;;;;;6244846;22;20011;-75
2022/06/05 04:35:14;;;;;;;1.73;0.85;;;17.30;90.00;;;;;;6245227;22;19996;-78
2022/06/05 04:37:45;;;;;;;1.15;0.50;;;17.20;90.40;;;;;;6244704;22;20077;-73
2022/06/05 04:40:12;;;;;;;1.67;0.63;;;17.10;90.10;;;;;;6244452;22;20000;-75
2022/06/05 04:42:40;;;;;;;2.08;0.50;;;17.20;90.40;;;;;;6244833;22;20000;-80
2022/06/05 04:45:09;;;;;;;1.55;0.70;;;17.10;90.50;;;;;;6245000;22;20083;-75
2022/06/05 04:47:36;;;;;;;1.42;0.80;;;17.10;90.80;;;;;;6244737;22;20015;-70
2022/06/05 04:50:04;;;;;;;0.80;0.45;;;17.00;90.40;;;;;;6245135;22;20311;-69
2022/06/05 04:52:31;;;;;;;2.33;0.68;;;16.90;90.30;;;;;;6244825;22;20000;-68
2022/06/05 04:54:59;;;;;;;1.20;0.50;;;16.90;90.40;;;;;;6244262;22;20004;-72
2022/06/05 04:57:26;;;;;;;1.25;0.60;;;16.90;90.50;;;;;;6243035;23;20012;-77
2022/06/05 04:59:54;;;;;;;1.33;0.50;;;16.80;90.60;;;;;;6244543;22;19996;-76
2022/06/05 05:02:22;;;;;;;4.68;1.40;;;16.80;90.70;;;;;;6243942;22;20000;-76
2022/06/05 05:04:49;;;;;;;1.02;0.50;;;16.80;90.50;;;;;;6244124;22;20014;-76
2022/06/05 05:07:17;;;;;;;1.55;0.50;;;16.70;90.60;;;;;;6243495;22;20350;-73
2022/06/05 05:09:45;;;;;;;0.73;0.52;;;16.70;90.50;;;;;;6244566;22;20005;-72
2022/06/05 05:12:16;;;;;;;3.88;0.65;;;16.60;90.60;;;;;;6244250;22;20011;-72
2022/06/05 05:14:43;;;;;;;1.50;0.68;;;16.60;90.60;;;;;;6243377;22;20508;-75
2022/06/05 05:17:11;;;;;;;2.03;0.60;;;16.50;90.80;;;;;;6241478;23;20452;-73
2022/06/05 05:19:38;;;;;;;0.70;0.60;;;16.50;90.90;;;;;;6244018;22;20008;-74
2022/06/05 05:22:06;;;;;;;0.93;0.50;;;16.40;90.90;;;;;;6243468;22;20004;-76
2022/06/05 05:24:33;;;;;;;0.70;0.60;;;16.40;91.20;;;;;;6243016;22;20004;-77
2022/06/05 05:27:02;;;;;;;1.35;0.70;;;16.40;91.60;;;;;;6243056;22;20004;-76
2022/06/05 05:29:29;;;;;;;2.15;0.80;;;16.40;91.30;;;;;;6242807;23;20019;-74
2022/06/05 05:31:56;;;;;;;1.38;0.60;;;16.40;91.50;;;;;;6243971;22;20008;-77
2022/06/05 05:34:24;;;;;;;0.95;0.70;;;16.30;91.30;;;;;;6243845;22;20008;-75
2022/06/05 05:36:51;;;;;;;1.13;0.45;;;16.30;91.50;;;;;;6244050;22;20007;-76
2022/06/05 05:42:08;;;;;;;2.28;0.50;;;16.20;91.50;;;;;;6242637;23;20522;-72
2022/06/05 05:44:38;;;;;;;2.37;0.80;;;16.10;91.70;;;;;;6240796;22;20000;-76
2022/06/05 05:47:08;;;;;;;0.57;0.40;;;16.00;91.70;;;;;;6241968;22;20604;-78
2022/06/05 05:49:36;;;;;;;1.20;0.60;;;16.00;91.70;;;;;;6244397;22;20004;-77
2022/06/05 05:52:05;;;;;;;2.42;0.65;;;16.00;92.00;;;;;;6243328;22;20000;-75
2022/06/05 05:54:33;;;;;;;1.25;0.57;;;16.00;91.70;;;;;;6242143;22;20000;-75
2022/06/05 05:57:01;;;;;;;0.70;0.60;;;15.90;91.90;;;;;;6241306;22;20073;-75
2022/06/05 05:59:29;;;;;;;1.92;0.60;;;15.90;92.10;;;;;;6241603;22;20066;-71
2022/06/05 06:01:56;;;;;;;1.58;0.60;;;15.90;92.10;;;;;;6242071;22;20019;-72
2022/06/05 06:04:23;;;;;;;1.20;0.60;;;15.80;92.10;;;;;;6241929;22;20031;-75
2022/06/05 06:06:52;;;;;;;1.17;0.80;;;15.80;92.10;;;;;;6242093;22;20442;-75
2022/06/05 06:09:20;;;;;;;1.08;0.70;;;15.80;92.10;;;;;;6242779;23;20066;-76
2022/06/05 06:11:48;;;;;;;2.30;0.70;;;15.70;91.80;;;;;;6243935;22;20008;-77
2022/06/05 06:14:15;;;;;;;1.67;0.80;;;15.70;92.00;;;;;;6243893;22;20331;-76
2022/06/05 06:16:45;;;;;;;2.10;0.80;;;15.70;92.10;;;;;;6241942;23;20004;-76
2022/06/05 06:19:15;;;;;;;1.27;0.70;;;15.70;92.30;;;;;;6242974;22;20008;-74
2022/06/05 06:21:43;;;;;;;3.08;0.80;;;15.60;92.30;;;;;;6244304;22;20000;-77
2022/06/05 06:24:12;;;;;;;0.82;0.60;;;15.60;92.10;;;;;;6243826;22;20004;-73
2022/06/05 06:26:42;;;;;;;1.33;0.80;;;15.60;92.00;;;;;;6243464;22;20004;-77
2022/06/05 06:29:10;;;;;;;1.13;0.60;;;15.50;92.10;;;;;;6242551;23;20008;-73
2022/06/05 06:31:38;;;;;;;0.90;0.50;;;15.50;92.20;;;;;;6243395;22;20024;-77
2022/06/05 06:34:06;;;;;;;1.05;0.50;;;15.50;92.40;;;;;;6243192;22;20426;-75
2022/06/05 06:36:34;;;;;;;0.70;0.60;;;15.50;92.10;;;;;;6243351;22;20007;-76
2022/06/05 06:39:02;;;;;;;0.70;0.60;;;15.40;92.10;;;;;;6243831;22;20001;-74
2022/06/05 06:41:29;;;;;;;1.23;0.85;;;15.40;92.30;;;;;;6243029;22;20003;-75
2022/06/05 06:43:57;;;;;;;1.90;0.70;;;15.30;92.20;;;;;;6243409;22;20051;-75
2022/06/05 06:46:24;;;;;;;2.30;1.08;;;15.20;92.40;;;;;;6243601;22;20062;-75
2022/06/05 06:48:52;;;;;;;1.13;0.77;;;15.20;92.50;;;;;;6243973;22;20083;-77
2022/06/05 06:51:19;;;;;;;2.28;0.70;;;15.10;92.70;;;;;;6243278;22;20000;-74
2022/06/05 06:53:47;;;;;;;1.05;0.70;;;15.10;92.90;;;;;;6243884;22;20008;-74
2022/06/05 06:56:20;;;;;;;2.80;0.60;;;15.00;93.00;;;;;;6244801;22;20083;-73
2022/06/05 06:58:48;;;;;;;1.60;0.80;;;14.90;92.80;;;;;;6243527;22;20023;-76
2022/06/05 07:01:16;;;;;;;0.95;0.70;;;14.90;92.90;;;;;;6243272;22;20118;-74
2022/06/05 07:03:43;;;;;;;1.83;0.77;;;14.90;93.00;;;;;;6242480;22;20016;-71
2022/06/05 07:06:13;;;;;;;2.47;1.33;;;14.80;93.20;;;;;;6241835;22;20004;-74
2022/06/05 07:08:42;;;;;;;0.70;0.60;;;14.80;93.50;;;;;;6242358;22;20496;-75
2022/06/05 07:11:12;;;;;;;2.75;1.00;;;14.70;93.40;;;;;;6242738;22;20004;-73
2022/06/05 07:13:41;;;;;;;1.83;0.85;;;14.70;93.50;;;;;;6243079;22;20035;-74
2022/06/05 07:16:10;;;;;;;1.83;1.02;;;14.60;93.50;;;;;;6243024;22;20007;-74
2022/06/05 07:18:38;;;;;;;1.45;0.85;;;14.60;93.80;;;;;;6243737;22;20422;-77
2022/06/05 07:21:11;;;;;;;1.23;0.88;;;14.50;93.80;;;;;;6241725;22;20000;-75
2022/06/05 07:23:39;;;;;;;2.05;0.90;;;14.50;94.00;;;;;;6242271;22;20427;-69
2022/06/05 07:26:09;;;;;;;1.25;0.80;;;14.40;93.90;;;;;;6241833;22;20058;-68
2022/06/05 07:28:37;;;;;;;1.50;1.00;;;14.40;94.00;;;;;;6242656;22;20015;-70
2022/06/05 07:31:06;;;;;;;2.30;1.15;;;14.40;93.90;;;;;;6242707;22;20087;-74
2022/06/05 07:33:34;;;;;;;1.42;0.82;;;14.50;94.20;;;;;;6242727;22;20010;-71
2022/06/05 07:36:04;;;;;;;1.20;0.88;;;14.40;94.10;;;;;;6242408;22;20304;-69
2022/06/05 07:38:33;;;;;;;3.05;0.80;;;14.40;94.20;;;;;;6243669;22;19997;-70
2022/06/05 07:41:01;;;;;;;2.40;1.10;;;14.40;94.10;;;;;;6245343;22;20008;-69
2022/06/05 07:43:30;;;;;;;1.65;0.90;;;14.40;94.20;;;;;;6244903;22;20000;-69
2022/06/05 07:45:57;;;;;;;1.50;1.10;;;14.40;94.10;;;;;;6244587;22;20008;-70
2022/06/05 07:48:25;;;;;;;1.80;0.98;;;14.40;94.40;;;;;;6244243;22;20012;-79
2022/06/05 07:56:34;;;;;;;3.03;1.20;;;14.20;94.50;;;;;;6243804;23;20011;-76
2022/06/05 07:59:01;;;;;;;2.20;1.23;;;14.20;94.80;;;;;;6244352;22;20008;-77
2022/06/05 08:01:29;;;;;;;2.70;1.55;;;14.20;94.80;;;;;;6244317;22;20004;-77
2022/06/05 08:03:56;;;;;;;3.90;2.17;;;14.20;95.00;;;;;;6244380;22;20023;-75
2022/06/05 08:06:24;;;;;;;2.45;1.38;;;14.10;94.90;;;;;;6244233;22;20000;-74
2022/06/05 08:08:51;;;;;;;2.13;1.52;;;14.10;95.00;;;;;;6244319;22;20038;-76
2022/06/05 08:11:18;;;;;;;2.72;1.02;;;14.10;95.10;;;;;;6244584;22;20006;-76
2022/06/05 08:13:46;;;;;;;1.90;1.30;;;14.00;95.00;;;;;;6242878;23;20004;-76
2022/06/05 08:16:14;;;;;;;2.28;1.77;;;14.10;95.10;;;;;;6244274;22;20362;-78
2022/06/05 08:18:44;;;;;;;3.20;2.10;;;14.00;95.10;;;;;;6244347;22;20006;-77
2022/06/05 08:21:11;;;;;;;1.70;1.27;;;14.00;95.20;;;;;;6244905;22;20030;-74
2022/06/05 08:23:39;;;;;;;4.63;1.23;;;13.90;95.10;;;;;;6244254;22;20003;-78
2022/06/05 08:26:06;;;;;;;1.50;1.00;;;13.90;95.40;;;;;;6244522;22;20097;-75
2022/06/05 08:28:36;;;;;;;2.65;1.98;;;13.80;95.20;;;;;;6242549;23;20012;-76
2022/06/05 08:31:04;;;;;;;3.65;1.52;;;13.80;95.30;;;;;;6244537;22;20000;-71
2022/06/05 08:33:33;;;;;;;2.28;1.30;;;13.80;95.40;;;;;;6244480;22;20418;-71
2022/06/05 08:36:00;;;;;;;2.28;1.20;;;13.80;95.30;;;;;;6244052;22;20004;-76
2022/06/05 08:41:28;;;;;;;3.05;1.08;;;13.70;95.30;;;;;;6243533;23;20127;-74
2022/06/05 08:44:08;;;;;;;1.95;1.10;;;13.60;95.40;;;;;;6243639;22;20011;-74
2022/06/05 08:47:01;;;;;;;2.35;1.42;;;13.70;95.30;;;;;;6243633;22;19996;-78
2022/06/05 08:49:37;;;;;;;;;;;13.60;95.50;;;;;;6242457;23;20012;-74
2022/06/05 08:52:18;;;;;;;2.42;1.50;;;13.60;95.40;;;;;;6244117;22;19906;-76
2022/06/05 08:55:14;;;;;;;4.90;1.33;;;13.50;95.50;;;;;;6245227;22;20334;-79
2022/06/05 08:58:01;;;;;;;2.22;1.50;;;13.50;95.50;;;;;;6228949;23;20008;-76
2022/06/05 09:00:38;;;;;;;1.60;1.20;;;13.50;95.40;;;;;;6244106;22;20000;-75
2022/06/05 09:03:15;;;;;;;1.35;0.93;;;13.40;95.40;;;;;;6243833;22;20019;-77
2022/06/05 09:05:47;;;;;;;1.30;1.00;;;13.50;95.40;;;;;;6243866;22;20030;-74
2022/06/05 09:08:21;;;;;;;1.90;1.20;;;13.50;95.50;;;;;;6243805;22;20018;-71
2022/06/05 09:10:53;;;;;;;1.67;0.95;;;13.40;95.60;;;;;;6243778;22;20079;-75
2022/06/05 09:13:35;;;;;;;3.30;0.98;;;13.40;95.60;;;;;;6237258;23;20004;-69
2022/06/05 09:16:06;;;;;;;;;;;13.40;95.70;;;;;;6242386;22;19997;-71
2022/06/05 09:18:37;;;;;;;1.42;1.33;;;13.30;95.60;;;;;;6241969;22;19900;-77
2022/06/05 09:21:23;;;;;;;2.85;0.90;;;13.30;95.60;;;;;;6216679;23;20047;-76
2022/06/05 09:24:14;;;;;;;2.25;0.77;;;13.30;95.50;;;;;;6242452;22;20395;-75
2022/06/05 09:27:14;;;;;;;3.75;1.10;;;13.30;95.50;;;;;;6243495;22;20023;-75
2022/06/05 09:29:59;;;;;;;1.48;1.20;;;13.30;95.70;;;;;;6242844;22;20008;-68
2022/06/05 09:32:53;;;;;;;1.73;0.75;;;13.30;95.60;;;;;;6243702;22;20010;-68
2022/06/05 09:35:30;;;;;;;1.77;0.95;;;13.30;95.80;;;;;;6243625;23;20000;-70
2022/06/05 09:38:19;;;;;;;3.15;1.02;;;13.20;95.80;;;;;;6243258;22;20438;-77
2022/06/05 09:40:58;;;;;;;0.88;0.70;;;13.20;95.70;;;;;;6241875;22;20227;-74
2022/06/05 09:43:46;;;;;;;2.72;0.90;;;13.10;95.90;;;;;;6241928;22;20011;-72
2022/06/05 09:46:32;;;;;;;2.47;1.10;;;13.10;96.00;;;;;;6242120;22;20011;-73
2022/06/05 09:49:20;;;;;;;1.92;1.00;;;13.10;96.10;;;;;;6240251;23;20577;-68
2022/06/05 09:51:47;;;;;;;2.30;1.48;;;13.00;96.40;;;;;;6243651;22;20569;-71
2022/06/05 09:54:32;;;;;;;2.35;1.17;;;13.00;96.30;;;;;;6241286;22;20015;-72
2022/06/05 10:00:48;;;;;;;1.67;0.95;;;13.00;96.50;;;;;;6242046;23;20539;-71
2022/06/05 10:03:21;;;;;;;2.50;1.20;;;12.90;96.70;;;;;;6218037;23;20015;-68
2022/06/05 10:06:26;;;;;;;3.38;0.70;;;12.90;96.80;;;;;;6241984;22;20000;-71
2022/06/05 10:09:22;;;;;;;1.60;0.88;;;12.90;96.80;;;;;;6241400;23;20027;-73
2022/06/05 10:11:57;;;;;;;1.55;0.80;;;12.80;97.00;;;;;;6233617;23;20000;-68
2022/06/05 10:14:33;;;;;;;1.27;0.60;;;12.80;97.10;;;;;;6241951;22;20500;-72
2022/06/05 10:17:23;;;;;;;1.10;0.70;;;12.80;97.10;;;;;;6242998;22;20004;-76
2022/06/05 10:20:08;;;;;;;1.08;0.60;;;12.80;97.30;;;;;;6185375;22;20000;-72
2022/06/05 10:22:44;;;;;;;1.58;0.50;;;12.70;97.40;;;;;;6243847;22;20434;-76
2022/06/05 10:25:17;;;;;;;1.60;0.52;;;12.70;97.40;;;;;;6243510;22;20371;-64
2022/06/05 10:27:52;;;;;;;1.83;0.80;;;12.70;97.50;;;;;;6243685;22;20426;-74
2022/06/05 10:30:21;;;;;;;1.05;0.70;;;12.70;97.60;;;;;;6243156;22;20315;-71
2022/06/05 10:33:07;;;;;;;1.30;0.88;;;12.70;97.80;;;;;;6240668;23;20004;-72
2022/06/05 10:36:02;;;;;;;1.02;0.70;;;12.60;97.90;;;;;;6243197;22;20004;-74
2022/06/05 10:38:47;;;;;;;1.98;0.75;;;12.60;98.10;;;;;;6242846;22;20367;-71
2022/06/05 10:41:35;;;;;;;1.40;1.20;;;12.60;98.30;;;;;;6243053;22;20430;-73
2022/06/05 10:44:21;;;;;;;1.20;0.85;;;12.50;98.40;;;;;;6244247;22;20378;-75
2022/06/05 10:47:00;;;;;;;2.50;1.65;;;12.40;98.50;;;;;;6242685;23;20007;-75
2022/06/05 10:49:49;;;;;;;2.53;0.98;;;12.40;98.90;;;;;;6243820;22;20027;-74
2022/06/05 10:52:34;;;;;;;2.25;0.80;;;12.40;98.70;;;;;;6243805;22;20423;-73
2022/06/05 10:55:34;;;;;;;1.85;0.90;;;12.30;98.80;;;;;;6243914;23;20035;-76
2022/06/05 10:58:19;;;;;;;1.08;0.70;;;12.30;98.80;;;;;;6176446;22;20012;-76
2022/06/05 11:01:19;;;;;;;1.77;0.73;;;12.20;98.80;;;;;;6244118;22;20012;-74
2022/06/05 11:04:23;;;;;;;2.25;1.00;;;12.20;98.70;;;;;;6243468;22;20012;-76
2022/06/05 11:07:25;;;;;;;1.48;0.82;;;12.20;98.70;;;;;;6243569;22;20022;-73
2022/06/05 11:10:14;;;;;;;1.83;1.05;;;12.20;98.80;;;;;;6182138;22;20431;-76
2022/06/05 11:16:07;;;;;;;0.65;0.60;;;12.20;98.60;;;;;;6245064;23;20063;-73
2022/06/05 11:18:49;;;;;;;1.15;0.77;;;12.20;98.50;;;;;;6244051;23;20000;-72
2022/06/05 11:21:23;;;;;;;1.52;0.80;;;12.20;98.50;;;;;;6245806;22;20012;-72
2022/06/05 11:23:54;;;;;;;1.58;0.90;;;12.20;98.50;;;;;;6245345;22;20058;-70
2022/06/05 11:26:40;;;;;;;1.17;0.90;;;12.20;98.60;;;;;;6242983;23;20099;-73
2022/06/05 11:29:27;;;;;;;0.90;0.70;;;12.20;98.80;;;;;;6244553;22;20039;-72
2022/06/05 11:32:04;;;;;;;1.45;0.90;;;12.10;98.70;;;;;;6245513;22;20000;-72
2022/06/05 11:34:50;;;;;;;1.63;0.80;;;12.10;98.90;;;;;;6245284;22;20010;-75
2022/06/05 11:37:41;;;;;;;2.28;0.90;;;12.10;98.90;;;;;;6244431;22;20004;-72
2022/06/05 11:40:22;;;;;;;3.38;1.88;;;12.00;99.00;;;;;;6245339;23;20010;-70
2022/06/05 11:43:13;;;;;;;1.27;0.70;;;12.00;99.10;;;;;;6245138;22;20000;-71
2022/06/05 11:45:52;;;;;;;0.88;0.60;;;12.00;99.10;;;;;;6245415;22;20004;-66
2022/06/05 11:48:30;;;;;;;0.90;0.60;;;12.10;99.20;;;;;;6245802;22;20036;-74
2022/06/05 11:51:55;;;;;;;0.77;0.63;;;12.00;99.10;;;;;;6244718;22;20077;-72
2022/06/05 11:54:29;;;;;;;1.10;0.70;;;12.10;99.00;;;;;;6243507;23;20008;-75
2022/06/05 11:57:18;;;;;;;1.55;0.73;;;12.00;99.00;;;;;;6245335;22;20083;-69
2022/06/05 12:00:12;;;;;;;2.28;0.90;;;12.00;99.00;;;;;;6245508;22;20011;-70
2022/06/05 12:02:46;;;;;;;1.27;0.70;;;12.00;99.10;;;;;;6245755;22;20008;-68
2022/06/05 12:05:41;;;;;;;0.90;0.80;;;11.90;99.20;;;;;;6245298;23;20035;-71
2022/06/05 12:08:15;;;;;;;0.88;0.77;;;11.90;99.20;;;;;;6245799;22;20095;-69
2022/06/05 12:11:10;;;;;;;0.90;0.57;;;11.90;99.20;;;;;;6247006;22;20003;-74
2022/06/05 12:13:59;;;;;;;2.17;0.85;;;11.90;99.20;;;;;;6247634;22;20004;-75
2022/06/05 12:16:29;;;;;;;2.17;0.95;;;11.90;99.40;;;;;;6247861;22;20079;-72
2022/06/05 12:19:16;;;;;;;1.23;0.73;;;11.80;99.40;;;;;;6252675;22;20000;-73
2022/06/05 12:22:07;;;;;;;2.22;1.10;;;11.90;99.40;;;;;;6253577;23;20008;-65
2022/06/05 12:24:57;;;;;;;1.52;0.82;;;11.80;99.40;;;;;;6256771;23;20004;-76
2022/06/05 12:27:24;;;;;;;2.35;1.25;;;11.80;99.50;;;;;;6249742;22;20008;-73
2022/06/05 12:29:56;;;;;;;2.65;1.48;;;11.80;99.60;;;;;;6247160;22;20075;-75
2022/06/05 12:32:55;;;;;;;1.23;0.70;;;11.70;99.60;;;;;;6247589;22;20357;-78
2022/06/05 12:35:44;;;;;;;1.52;1.00;;;11.70;99.80;;;;;;6220416;23;20000;-77
2022/06/05 12:38:19;;;;;;;1.70;0.88;;;11.70;99.70;;;;;;6246717;22;20015;-74
2022/06/05 12:41:09;;;;;;;0.70;0.60;;;11.80;99.80;;;;;;6246751;22;20000;-76
2022/06/05 12:43:55;;;;;;;1.23;0.73;;;11.70;99.90;;;;;;6245553;22;20012;-77
2022/06/05 12:46:34;;;;;;;0.85;0.60;;;11.70;99.80;;;;;;6245730;22;20005;-69
2022/06/05 12:49:24;;;;;;;1.48;1.23;;;11.70;99.70;;;;;;6245575;22;20047;-76
2022/06/05 12:52:13;;;;;;;1.60;0.90;;;11.70;99.60;;;;;;6245270;22;20011;-76
2022/06/05 12:55:01;;;;;;;2.55;0.90;;;11.70;99.60;;;;;;6243705;23;20356;-76
2022/06/05 12:57:52;;;;;;;1.55;0.80;;;11.70;99.60;;;;;;6244701;22;20422;-72
2022/06/05 13:00:42;;;;;;;0.88;0.75;;;11.70;99.60;;;;;;6244314;23;20020;-73
2022/06/05 13:03:42;;;;;;;2.45;0.80;;;11.70;99.70;;;;;;6243599;23;20016;-77
2022/06/05 13:06:10;;;;;;;1.95;0.80;;;11.70;99.70;;;;;;6244095;22;20004;-71
2022/06/05 13:08:42;;;;;;;1.05;0.70;;;11.70;99.80;;;;;;6244638;22;20062;-76
2022/06/05 13:11:32;;;;;;;1.80;0.73;;;11.70;99.80;;;;;;6244532;22;20000;-75
2022/06/05 13:14:09;;;;;;;0.98;0.70;;;11.60;99.90;;;;;;6244813;22;20357;-76
2022/06/05 13:16:56;;;;;;;1.05;0.77;;;11.60;99.90;;;;;;6244639;22;19996;-79
2022/06/05 13:19:36;;;;;;;0.70;0.70;;;11.50;99.90;;;;;;6183258;22;20050;-73
2022/06/05 13:22:23;;;;;;;1.50;0.75;;;11.50;99.90;;;;;;6244508;22;20027;-74
2022/06/05 13:24:50;;;;;;;1.35;0.70;;;11.50;99.90;;;;;;6244450;22;20034;-76
2022/06/05 13:27:59;;;;;;;0.95;0.55;;;11.50;99.90;;;;;;6243848;22;20381;-73
2022/06/05 13:30:32;;;;;;;1.23;0.77;;;11.50;99.90;;;;;;6244420;22;20011;-72
2022/06/05 13:33:29;;;;;;;0.85;0.63;;;11.50;99.90;;;;;;6243988;22;20042;-77
2022/06/05 13:36:05;;;;;;;1.20;0.63;;;11.50;99.90;;;;;;6243499;23;20501;-74
2022/06/05 13:38:36;;;;;;;0.60;0.50;;;11.50;99.90;;;;;;6244022;22;20000;-71
2022/06/05 13:41:19;;;;;;;1.38;0.60;;;11.50;99.90;;;;;;6244533;22;20087;-76
2022/06/05 13:43:59;;;;;;;1.05;0.82;;;11.50;99.90;;;;;;6243156;23;20510;-72
2022/06/05 13:46:48;;;;;;;1.42;0.68;;;11.60;99.90;;;;;;6244224;22;20011;-76
2022/06/05 13:49:42;;;;;;;0.80;0.52;;;11.60;99.90;;;;;;6244198;22;20019;-70
2022/06/05 13:52:21;;;;;;;0.85;0.60;;;11.70;99.90;;;;;;6242815;23;20436;-71
2022/06/05 13:55:17;;;;;;;0.63;0.50;;;11.70;99.90;;;;;;6244459;22;20427;-76